createdAt,value
2023-01-10T00:00:37.931Z,4.81
2023-01-10T00:03:07.655Z,4.79
2023-01-10T00:05:35.892Z,4.79
2023-01-10T00:08:03.430Z,4.78
2023-01-10T00:10:30.669Z,4.74
2023-01-10T00:13:15.664Z,4.78
2023-01-10T00:15:42.544Z,4.90
2023-01-10T00:18:08.978Z,4.91
2023-01-10T00:20:35.403Z,4.86
2023-01-10T00:23:01.784Z,4.91
2023-01-10T00:25:28.147Z,4.99
2023-01-10T00:28:04.477Z,5.04
2023-01-10T00:30:30.848Z,5.07
2023-01-10T00:32:57.305Z,5.11
2023-01-10T00:35:23.672Z,5.15
2023-01-10T00:37:50.436Z,5.22
2023-01-10T00:40:16.910Z,5.13
2023-01-10T00:43:01.879Z,5.14
2023-01-10T00:45:28.267Z,5.13
2023-01-10T00:47:54.589Z,5.10
2023-01-10T00:50:20.959Z,5.12
2023-01-10T00:52:47.336Z,5.15
2023-01-10T00:55:13.691Z,5.18
2023-01-10T00:57:40.069Z,5.23
2023-01-10T01:00:09.204Z,5.24
2023-01-10T01:02:36.148Z,5.23
2023-01-10T01:05:02.817Z,5.27
2023-01-10T01:07:29.182Z,5.26
2023-01-10T01:10:13.945Z,5.24
2023-01-10T01:12:40.346Z,5.24
2023-01-10T01:15:07.273Z,5.18
2023-01-10T01:17:33.632Z,5.13
2023-01-10T01:20:00.022Z,5.18
2023-01-10T01:22:26.455Z,5.18
2023-01-10T01:24:52.777Z,5.14
2023-01-10T01:27:19.716Z,5.13
2023-01-10T01:29:46.059Z,5.13
2023-01-10T01:32:12.446Z,5.16
2023-01-10T01:34:38.908Z,5.15
2023-01-10T01:37:05.293Z,5.22
2023-01-10T01:39:31.644Z,5.29
2023-01-10T01:41:58.028Z,5.31
2023-01-10T01:44:30.621Z,5.33
2023-01-10T01:47:07.013Z,5.36
2023-01-10T01:49:36.895Z,5.32
2023-01-10T01:52:08.879Z,5.29
2023-01-10T01:54:35.767Z,5.26
2023-01-10T01:57:07.015Z,5.24
2023-01-10T01:59:38.348Z,5.22
2023-01-10T02:02:12.122Z,5.14
2023-01-10T02:04:48.824Z,5.03
2023-01-10T02:07:15.728Z,4.93
2023-01-10T02:09:51.325Z,4.92
2023-01-10T02:12:18.936Z,4.98
2023-01-10T02:14:48.200Z,5.02
2023-01-10T02:17:14.575Z,5.02
2023-01-10T02:19:49.749Z,5.06
2023-01-10T02:22:35.108Z,5.09
2023-01-10T02:25:04.417Z,5.12
2023-01-10T02:27:35.847Z,5.14
2023-01-10T02:30:30.765Z,5.18
2023-01-10T02:33:10.693Z,5.22
2023-01-10T02:35:56.765Z,5.26
2023-01-10T02:38:36.924Z,5.29
2023-01-10T02:41:09.504Z,5.32
2023-01-10T02:43:42.217Z,5.35
2023-01-10T02:46:14.544Z,5.38
2023-01-10T02:48:40.957Z,5.41
2023-01-10T02:51:18.602Z,5.45
2023-01-10T02:54:08.507Z,5.45
2023-01-10T02:56:51.978Z,5.49
2023-01-10T02:59:41.979Z,5.53
2023-01-10T03:02:58.320Z,5.52
2023-01-10T03:05:46.339Z,5.57
2023-01-10T03:08:36.793Z,5.57
2023-01-10T03:11:06.236Z,5.59
2023-01-10T03:13:39.569Z,5.61
2023-01-10T03:16:10.452Z,5.58
2023-01-10T03:18:45.128Z,5.53
2023-01-10T03:21:13.063Z,5.52
2023-01-10T03:23:40.543Z,5.47
2023-01-10T03:26:10.130Z,5.46
2023-01-10T03:28:51.518Z,5.47
2023-01-10T03:31:32.081Z,5.45
2023-01-10T03:33:58.572Z,5.43
2023-01-10T03:36:37.584Z,5.41
2023-01-10T03:39:16.172Z,5.42
2023-01-10T03:41:50.523Z,5.45
2023-01-10T03:44:45.556Z,5.44
2023-01-10T03:47:41.079Z,5.43
2023-01-10T03:50:12.707Z,5.41
2023-01-10T03:52:42.356Z,5.41
2023-01-10T03:55:11.934Z,5.36
2023-01-10T03:57:41.971Z,5.35
2023-01-10T04:00:09.392Z,5.32
2023-01-10T04:02:35.862Z,5.30
2023-01-10T04:05:02.325Z,5.29
2023-01-10T04:07:28.744Z,5.21
2023-01-10T04:09:55.150Z,5.13
2023-01-10T04:12:21.617Z,5.04
2023-01-10T04:14:48.151Z,4.97
2023-01-10T04:17:16.220Z,4.88
2023-01-10T04:19:42.926Z,4.81
2023-01-10T04:22:10.423Z,4.77
2023-01-10T04:24:37.112Z,4.74
2023-01-10T04:27:03.639Z,4.74
2023-01-10T04:29:30.038Z,4.73
2023-01-10T04:31:56.425Z,4.68
2023-01-10T04:34:22.975Z,4.64
2023-01-10T04:36:50.683Z,4.60
2023-01-10T04:39:17.220Z,4.54
2023-01-10T04:41:43.595Z,4.46
2023-01-10T04:44:10.734Z,4.48
2023-01-10T04:46:37.114Z,4.39
2023-01-10T04:49:03.524Z,4.35
2023-01-10T04:51:29.900Z,4.33
2023-01-10T04:53:56.311Z,4.23
2023-01-10T04:56:23.304Z,4.14
2023-01-10T04:58:52.994Z,4.18
2023-01-10T05:01:22.597Z,4.10
2023-01-10T05:03:53.663Z,4.08
2023-01-10T05:06:21.539Z,4.07
2023-01-10T05:08:48.061Z,4.05
2023-01-10T05:11:14.421Z,4.05
2023-01-10T05:13:41.683Z,4.02
2023-01-10T05:16:08.542Z,3.99
2023-01-10T05:18:35.007Z,3.93
2023-01-10T05:21:06.172Z,3.92
2023-01-10T05:23:33.294Z,3.96
2023-01-10T05:26:07.253Z,3.94
2023-01-10T05:28:33.827Z,3.89
2023-01-10T05:31:00.456Z,3.86
2023-01-10T05:33:26.816Z,3.83
2023-01-10T05:35:53.228Z,3.85
2023-01-10T05:38:19.655Z,3.95
2023-01-10T05:40:46.051Z,4.02
2023-01-10T05:43:12.403Z,4.11
2023-01-10T05:45:38.870Z,4.19
2023-01-10T05:48:05.467Z,4.29
2023-01-10T05:50:31.847Z,4.40
2023-01-10T05:53:03.584Z,4.50
2023-01-10T05:55:29.986Z,4.57
2023-01-10T05:57:56.684Z,4.60
2023-01-10T06:00:25.006Z,4.72
2023-01-10T06:02:54.375Z,4.82
2023-01-10T06:05:21.308Z,4.88
2023-01-10T06:07:47.677Z,4.94
2023-01-10T06:10:14.151Z,5.00
2023-01-10T06:12:40.716Z,5.02
2023-01-10T06:15:08.277Z,5.09
2023-01-10T06:17:34.733Z,5.19
2023-01-10T06:20:01.380Z,5.25
2023-01-10T06:22:28.182Z,5.27
2023-01-10T06:24:55.414Z,5.31
2023-01-10T06:27:21.925Z,5.33
2023-01-10T06:29:48.324Z,5.37
2023-01-10T06:32:14.742Z,5.39
2023-01-10T06:34:41.084Z,5.42
2023-01-10T06:37:08.461Z,5.43
2023-01-10T06:39:34.819Z,5.43
2023-01-10T06:42:01.181Z,5.45
2023-01-10T06:44:27.622Z,5.51
2023-01-10T06:46:53.955Z,5.51
2023-01-10T06:49:20.322Z,5.51
2023-01-10T06:51:46.693Z,5.56
2023-01-10T06:54:13.064Z,5.58
2023-01-10T06:56:39.402Z,5.57
2023-01-10T06:59:08.288Z,5.59
2023-01-10T07:01:34.966Z,5.60
2023-01-10T07:04:01.451Z,5.60
2023-01-10T07:06:27.848Z,5.59
2023-01-10T07:08:54.851Z,5.58
2023-01-10T07:11:21.171Z,5.59
2023-01-10T07:13:47.758Z,5.57
2023-01-10T07:16:16.125Z,5.58
2023-01-10T07:18:43.385Z,5.54
2023-01-10T07:21:10.865Z,5.51
2023-01-10T07:23:38.130Z,5.47
2023-01-10T07:26:09.432Z,5.43
2023-01-10T07:28:35.906Z,5.43
2023-01-10T07:31:04.268Z,5.43
2023-01-10T07:33:31.412Z,5.45
2023-01-10T07:35:59.879Z,5.48
2023-01-10T07:38:26.286Z,5.47
2023-01-10T07:40:52.614Z,5.46
2023-01-10T07:43:18.993Z,5.46
2023-01-10T07:45:45.445Z,5.42
2023-01-10T07:48:11.788Z,5.35
2023-01-10T07:50:38.530Z,5.31
2023-01-10T07:53:07.676Z,5.29
2023-01-10T07:55:38.806Z,5.26
2023-01-10T07:58:07.786Z,5.23
2023-01-10T08:00:35.511Z,5.28
2023-01-10T08:03:02.331Z,5.29
2023-01-10T08:05:28.816Z,5.30
2023-01-10T08:07:59.855Z,5.32
2023-01-10T08:10:26.941Z,5.33
2023-01-10T08:12:53.278Z,5.34
2023-01-10T08:15:19.729Z,5.35
2023-01-10T08:17:46.181Z,5.37
2023-01-10T08:20:12.732Z,5.37
2023-01-10T08:22:39.149Z,5.35
2023-01-10T08:25:05.708Z,5.36
2023-01-10T08:27:32.103Z,5.38
2023-01-10T08:29:58.539Z,5.39
2023-01-10T08:32:25.112Z,5.32
2023-01-10T08:34:51.577Z,5.29
2023-01-10T08:37:17.958Z,5.22
2023-01-10T08:39:44.340Z,5.22
2023-01-10T08:42:10.710Z,5.22
2023-01-10T08:44:37.070Z,5.25
2023-01-10T08:47:03.980Z,5.23
2023-01-10T08:49:30.361Z,5.22
2023-01-10T08:51:56.728Z,5.24
2023-01-10T08:54:23.268Z,5.25
2023-01-10T08:56:49.673Z,5.29
2023-01-10T08:59:16.372Z,5.29
2023-01-10T09:01:42.846Z,5.33
2023-01-10T09:04:09.227Z,5.38
2023-01-10T09:06:36.338Z,5.42
2023-01-10T09:09:02.935Z,5.43
2023-01-10T09:11:29.749Z,5.45
2023-01-10T09:13:56.100Z,5.49
2023-01-10T09:16:22.552Z,5.52
2023-01-10T09:18:49.147Z,5.56
2023-01-10T09:21:15.766Z,5.58
2023-01-10T09:23:43.502Z,5.56
2023-01-10T09:26:09.919Z,5.56
2023-01-10T09:28:36.283Z,5.59
2023-01-10T09:31:04.400Z,5.59
2023-01-10T09:33:45.176Z,5.58
2023-01-10T09:36:15.265Z,5.57
2023-01-10T09:38:41.716Z,5.57
2023-01-10T09:41:45.614Z,5.57
2023-01-10T09:44:24.853Z,5.61
2023-01-10T09:47:08.399Z,5.62
2023-01-10T09:50:15.340Z,5.59
2023-01-10T09:52:46.360Z,5.64
2023-01-10T09:55:27.880Z,5.67
2023-01-10T09:57:55.346Z,5.67
2023-01-10T10:00:37.377Z,5.62
2023-01-10T10:03:17.839Z,5.62
2023-01-10T10:05:45.041Z,5.67
2023-01-10T10:08:17.613Z,5.67
2023-01-10T10:10:53.468Z,5.62
2023-01-10T10:13:28.446Z,5.64
2023-01-10T10:16:14.334Z,5.67
2023-01-10T10:18:53.962Z,5.68
2023-01-10T10:21:25.659Z,5.68
2023-01-10T10:23:57.931Z,5.72
2023-01-10T10:26:34.955Z,5.72
2023-01-10T10:29:20.821Z,5.71
2023-01-10T10:32:06.618Z,5.72
2023-01-10T10:34:48.070Z,5.76
2023-01-10T10:37:33.334Z,5.71
2023-01-10T10:40:06.387Z,5.70
2023-01-10T10:42:39.456Z,5.65
2023-01-10T10:45:08.728Z,5.65
2023-01-10T10:47:39.756Z,5.64
2023-01-10T10:50:14.903Z,5.59
2023-01-10T10:52:43.686Z,5.56
2023-01-10T10:55:16.328Z,5.57
2023-01-10T10:57:59.111Z,5.51
2023-01-10T11:00:27.539Z,5.51
2023-01-10T11:02:57.469Z,5.52
2023-01-10T11:05:33.115Z,5.49
2023-01-10T11:08:22.918Z,5.49
2023-01-10T11:10:55.004Z,5.50
2023-01-10T11:13:33.340Z,5.53
2023-01-10T11:16:05.673Z,5.55
2023-01-10T11:18:32.957Z,5.56
2023-01-10T11:21:03.669Z,5.58
2023-01-10T11:23:55.681Z,5.58
2023-01-10T11:26:28.164Z,5.62
2023-01-10T11:29:19.552Z,5.63
2023-01-10T11:31:47.176Z,5.64
2023-01-10T11:34:32.849Z,5.65
2023-01-10T11:37:04.950Z,5.68
2023-01-10T11:39:32.523Z,5.65
2023-01-10T11:42:26.268Z,5.66
2023-01-10T11:44:52.581Z,5.69
2023-01-10T11:47:20.811Z,5.70
2023-01-10T11:49:49.374Z,5.72
2023-01-10T11:52:22.856Z,5.73
2023-01-10T11:54:49.407Z,5.74
2023-01-10T11:57:23.445Z,5.77
2023-01-10T11:59:53.727Z,5.78
2023-01-10T12:02:29.336Z,5.77
2023-01-10T12:04:59.228Z,5.76
2023-01-10T12:07:25.658Z,5.77
2023-01-10T12:09:57.076Z,5.78
2023-01-10T12:12:27.278Z,5.79
2023-01-10T12:14:56.063Z,5.81
2023-01-10T12:17:31.213Z,5.81
2023-01-10T12:20:02.847Z,5.84
2023-01-10T12:22:39.062Z,5.87
2023-01-10T12:25:36.783Z,5.91
2023-01-10T12:28:04.345Z,5.96
2023-01-10T12:30:38.827Z,5.97
2023-01-10T12:33:16.368Z,6.02
2023-01-10T12:35:49.834Z,6.06
2023-01-10T12:38:42.142Z,6.09
2023-01-10T12:41:11.271Z,6.11
2023-01-10T12:44:00.396Z,6.13
2023-01-10T12:47:06.540Z,6.14
2023-01-10T12:49:43.733Z,6.15
2023-01-10T12:52:23.112Z,6.18
2023-01-10T12:54:49.738Z,6.21
2023-01-10T12:57:35.948Z,6.23
2023-01-10T13:00:05.914Z,6.24
2023-01-10T13:02:43.789Z,6.25
2023-01-10T13:05:19.190Z,6.29
2023-01-10T13:07:47.857Z,6.29
2023-01-10T13:10:18.506Z,6.30
2023-01-10T13:12:51.657Z,6.30
2023-01-10T13:15:24.089Z,6.31
2023-01-10T13:18:05.481Z,6.35
2023-01-10T13:20:41.314Z,6.37
2023-01-10T13:23:22.375Z,6.39
2023-01-10T13:25:58.300Z,6.43
2023-01-10T13:28:28.372Z,6.45
2023-01-10T13:30:58.126Z,6.48
2023-01-10T13:34:03.732Z,6.51
2023-01-10T13:36:37.846Z,6.52
2023-01-10T13:39:08.928Z,6.56
2023-01-10T13:42:16.062Z,6.59
2023-01-10T13:45:00.722Z,6.62
2023-01-10T13:47:39.488Z,6.65
2023-01-10T13:50:24.341Z,6.67
2023-01-10T13:52:55.404Z,6.69
2023-01-10T13:55:32.736Z,6.71
2023-01-10T13:58:01.496Z,6.73
2023-01-10T14:00:52.449Z,6.74
2023-01-10T14:03:45.811Z,6.75
2023-01-10T14:06:20.514Z,6.75
2023-01-10T14:09:23.330Z,6.75
2023-01-10T14:12:01.668Z,6.75
2023-01-10T14:14:38.043Z,6.74
2023-01-10T14:17:28.078Z,6.73
2023-01-10T14:20:28.175Z,6.67
2023-01-10T14:22:59.448Z,6.41
2023-01-10T14:25:26.816Z,6.17
2023-01-10T14:27:54.237Z,5.99
2023-01-10T14:30:26.564Z,5.86
2023-01-10T14:32:57.953Z,5.77
2023-01-10T14:35:39.175Z,5.69
2023-01-10T14:38:07.755Z,5.65
2023-01-10T14:40:41.020Z,5.63
2023-01-10T14:43:19.365Z,5.61
2023-01-10T14:45:57.774Z,5.59
2023-01-10T14:48:35.295Z,5.57
2023-01-10T14:51:18.378Z,5.55
2023-01-10T14:53:44.974Z,5.52
2023-01-10T14:56:26.704Z,5.50
2023-01-10T14:58:53.138Z,5.49
2023-01-10T15:01:26.736Z,5.49
2023-01-10T15:03:54.754Z,5.47
2023-01-10T15:06:21.344Z,5.44
2023-01-10T15:08:55.752Z,5.42
2023-01-10T15:11:22.580Z,5.42
2023-01-10T15:13:53.683Z,5.41
2023-01-10T15:16:22.971Z,5.41
2023-01-10T15:18:50.496Z,5.41
2023-01-10T15:21:20.642Z,5.38
2023-01-10T15:23:47.963Z,5.40
2023-01-10T15:26:19.302Z,5.39
2023-01-10T15:29:01.828Z,5.38
2023-01-10T15:31:29.134Z,5.38
2023-01-10T15:33:58.589Z,5.37
2023-01-10T15:36:27.827Z,5.38
2023-01-10T15:38:54.553Z,5.37
2023-01-10T15:41:23.488Z,5.39
2023-01-10T15:43:51.885Z,5.40
2023-01-10T15:46:24.136Z,5.38
2023-01-10T15:49:01.357Z,5.39
2023-01-10T15:51:32.443Z,5.39
2023-01-10T15:54:03.776Z,5.41
2023-01-10T15:56:39.964Z,5.40
2023-01-10T15:59:22.311Z,5.40
2023-01-10T16:02:01.224Z,5.40
2023-01-10T16:04:28.394Z,5.40
2023-01-10T16:07:06.874Z,5.37
2023-01-10T16:09:34.010Z,5.37
2023-01-10T16:12:18.569Z,5.36
2023-01-10T16:14:45.074Z,5.35
2023-01-10T16:17:12.480Z,5.32
2023-01-10T16:19:38.909Z,5.31
2023-01-10T16:22:05.421Z,5.28
2023-01-10T16:24:34.917Z,5.26
2023-01-10T16:27:05.809Z,5.24
2023-01-10T16:29:32.761Z,5.24
2023-01-10T16:31:59.101Z,5.23
2023-01-10T16:34:25.995Z,5.22
2023-01-10T16:36:52.849Z,5.21
2023-01-10T16:39:21.666Z,5.22
2023-01-10T16:42:07.345Z,5.22
2023-01-10T16:44:34.811Z,5.21
2023-01-10T16:47:01.855Z,5.19
2023-01-10T16:49:28.360Z,5.20
2023-01-10T16:51:57.327Z,5.19
2023-01-10T16:54:25.863Z,5.18
2023-01-10T16:56:52.284Z,5.19
2023-01-10T16:59:20.225Z,5.19
2023-01-10T17:01:55.947Z,5.19
2023-01-10T17:04:35.523Z,5.21
2023-01-10T17:07:02.176Z,5.23
2023-01-10T17:09:30.530Z,5.23
2023-01-10T17:12:05.400Z,5.23
2023-01-10T17:14:35.126Z,5.24
2023-01-10T17:17:04.710Z,5.26
2023-01-10T17:19:31.572Z,5.26
2023-01-10T17:21:57.959Z,5.28
2023-01-10T17:24:24.552Z,5.29
2023-01-10T17:26:51.037Z,5.30
2023-01-10T17:29:17.388Z,5.31
2023-01-10T17:31:43.783Z,5.31
2023-01-10T17:34:10.135Z,5.33
2023-01-10T17:36:38.981Z,5.33
2023-01-10T17:39:06.431Z,5.36
2023-01-10T17:41:34.584Z,5.35
2023-01-10T17:44:01.550Z,5.38
2023-01-10T17:46:27.956Z,5.40
2023-01-10T17:48:54.463Z,5.43
2023-01-10T17:51:22.826Z,5.45
2023-01-10T17:53:49.240Z,5.48
2023-01-10T17:56:16.002Z,5.50
2023-01-10T17:58:42.525Z,5.50
2023-01-10T18:01:18.873Z,5.53
2023-01-10T18:03:45.461Z,5.56
2023-01-10T18:06:22.932Z,5.60
2023-01-10T18:08:50.128Z,5.62
2023-01-10T18:11:16.634Z,5.66
2023-01-10T18:13:42.974Z,5.68
2023-01-10T18:16:09.366Z,5.72
2023-01-10T18:18:36.926Z,5.76
2023-01-10T18:21:05.205Z,5.80
2023-01-10T18:23:32.749Z,5.82
2023-01-10T18:26:05.162Z,5.84
2023-01-10T18:28:41.025Z,5.86
2023-01-10T18:31:13.582Z,5.90
2023-01-10T18:33:40.214Z,5.91
2023-01-10T18:36:08.075Z,5.92
2023-01-10T18:38:36.384Z,5.96
2023-01-10T18:41:03.412Z,5.98
2023-01-10T18:43:31.027Z,6.02
2023-01-10T18:46:05.642Z,6.05
2023-01-10T18:48:32.474Z,6.08
2023-01-10T18:51:00.354Z,6.11
2023-01-10T18:53:27.228Z,6.17
2023-01-10T18:55:55.149Z,6.18
2023-01-10T18:58:31.077Z,6.19
2023-01-10T19:00:57.649Z,6.23
2023-01-10T19:03:24.247Z,6.27
2023-01-10T19:05:50.767Z,6.31
2023-01-10T19:08:17.255Z,6.37
2023-01-10T19:11:11.455Z,6.43
2023-01-10T19:13:31.790Z,6.48
2023-01-10T19:16:21.280Z,6.53
2023-01-10T19:18:53.588Z,6.58
2023-01-10T19:21:21.517Z,6.61
2023-01-10T19:23:50.979Z,6.64
2023-01-10T19:26:17.697Z,6.66
2023-01-10T19:28:44.900Z,6.69
2023-01-10T19:31:19.349Z,6.75
2023-01-10T19:33:47.512Z,6.77
2023-01-10T19:36:15.079Z,6.80
2023-01-10T19:38:41.483Z,6.82
2023-01-10T19:41:08.540Z,6.86
2023-01-10T19:43:34.889Z,6.88
2023-01-10T19:46:09.407Z,6.89
2023-01-10T19:48:37.968Z,6.91
2023-01-10T19:51:09.941Z,6.99
2023-01-10T19:53:38.007Z,7.01
2023-01-10T19:56:09.473Z,7.08
2023-01-10T19:58:37.582Z,7.09
2023-01-10T20:01:12.940Z,7.11
2023-01-10T20:03:42.192Z,7.13
2023-01-10T20:06:10.936Z,7.14
2023-01-10T20:08:37.392Z,7.15
2023-01-10T20:11:05.770Z,7.16
2023-01-10T20:13:37.273Z,7.22
2023-01-10T20:16:04.984Z,7.26
2023-01-10T20:18:31.612Z,7.28
2023-01-10T20:20:58.061Z,7.28
2023-01-10T20:23:24.447Z,7.32
2023-01-10T20:25:59.425Z,7.33
2023-01-10T20:28:26.491Z,7.33
2023-01-10T20:30:53.503Z,7.36
2023-01-10T20:33:21.820Z,7.41
2023-01-10T20:36:03.568Z,7.44
2023-01-10T20:38:30.992Z,7.51
2023-01-10T20:41:02.644Z,7.54
2023-01-10T20:43:29.331Z,7.55
2023-01-10T20:45:56.055Z,7.56
2023-01-10T20:48:23.016Z,7.54
2023-01-10T20:50:49.451Z,7.56
2023-01-10T20:53:16.043Z,7.57
2023-01-10T20:55:43.173Z,7.58
2023-01-10T20:58:10.564Z,7.59
2023-01-10T21:00:36.930Z,7.60
2023-01-10T21:03:03.304Z,7.61
2023-01-10T21:05:29.708Z,7.62
2023-01-10T21:07:56.091Z,7.61
2023-01-10T21:10:22.634Z,7.63
2023-01-10T21:12:48.975Z,7.63
2023-01-10T21:15:15.395Z,7.64
2023-01-10T21:17:43.129Z,7.64
2023-01-10T21:20:10.356Z,7.68
2023-01-10T21:22:36.877Z,7.71
2023-01-10T21:25:03.545Z,7.74
2023-01-10T21:27:31.373Z,7.76
2023-01-10T21:29:58.388Z,7.78
2023-01-10T21:32:25.004Z,7.81
2023-01-10T21:34:51.451Z,7.82
2023-01-10T21:37:17.937Z,7.82
2023-01-10T21:39:44.349Z,7.85
2023-01-10T21:42:30.489Z,7.87
2023-01-10T21:44:57.077Z,7.86
2023-01-10T21:47:23.869Z,7.87
2023-01-10T21:49:50.236Z,7.89
2023-01-10T21:52:17.193Z,7.90
2023-01-10T21:54:43.878Z,7.90
2023-01-10T21:57:10.270Z,7.94
2023-01-10T21:59:40.639Z,7.95
2023-01-10T22:02:12.177Z,7.98
2023-01-10T22:04:38.592Z,7.98
2023-01-10T22:07:05.057Z,8.00
2023-01-10T22:09:31.442Z,7.99
2023-01-10T22:11:57.825Z,8.00
2023-01-10T22:14:24.154Z,8.02
2023-01-10T22:16:50.480Z,8.04
2023-01-10T22:19:16.792Z,8.07
2023-01-10T22:21:43.127Z,8.12
2023-01-10T22:24:09.766Z,8.18
2023-01-10T22:26:36.147Z,8.24
2023-01-10T22:29:02.452Z,8.28
2023-01-10T22:31:28.806Z,8.28
2023-01-10T22:33:55.210Z,8.31
2023-01-10T22:36:21.600Z,8.37
2023-01-10T22:38:48.637Z,8.40
2023-01-10T22:41:17.632Z,8.41
2023-01-10T22:43:44.352Z,8.42
2023-01-10T22:46:10.949Z,8.46
2023-01-10T22:48:38.421Z,8.47
2023-01-10T22:51:07.947Z,8.50
2023-01-10T22:53:34.908Z,8.55
2023-01-10T22:56:02.894Z,8.61
2023-01-10T22:58:29.618Z,8.64
2023-01-10T23:00:56.335Z,8.68
2023-01-10T23:03:23.277Z,8.69
2023-01-10T23:05:57.590Z,8.67
2023-01-10T23:08:25.736Z,8.72
2023-01-10T23:10:53.981Z,8.74
2023-01-10T23:13:21.670Z,8.79
2023-01-10T23:15:56.106Z,8.82
2023-01-10T23:18:22.850Z,8.82
2023-01-10T23:20:49.168Z,8.86
2023-01-10T23:23:15.514Z,8.93
2023-01-10T23:25:41.866Z,8.95
2023-01-10T23:28:08.242Z,8.97
2023-01-10T23:30:34.628Z,9.04
2023-01-10T23:33:01.060Z,9.09
2023-01-10T23:35:27.831Z,9.15
2023-01-10T23:37:54.207Z,9.18
2023-01-10T23:40:20.819Z,9.19
2023-01-10T23:42:47.536Z,9.21
2023-01-10T23:45:13.977Z,9.24
2023-01-10T23:47:40.366Z,9.25
2023-01-10T23:50:07.682Z,9.28
2023-01-10T23:52:34.085Z,9.27
2023-01-10T23:55:00.456Z,9.27
2023-01-10T23:57:26.800Z,9.32
2023-01-10T23:59:53.166Z,9.33
